createdAt,value
2022-12-26T00:01:48.435Z,66.30
2022-12-26T00:04:53.581Z,64.88
2022-12-26T00:07:56.713Z,68.30
2022-12-26T00:10:59.490Z,59.67
2022-12-26T00:14:06.111Z,66.83
2022-12-26T00:17:08.852Z,61.75
2022-12-26T00:20:11.829Z,62.83
2022-12-26T00:23:14.566Z,65.10
2022-12-26T00:26:20.475Z,64.97
2022-12-26T00:29:23.467Z,58.20
2022-12-26T00:32:26.203Z,87.18
2022-12-26T00:35:28.947Z,77.95
2022-12-26T00:38:32.342Z,70.82
2022-12-26T00:41:35.173Z,71.50
2022-12-26T00:44:38.116Z,63.63
2022-12-26T00:47:40.929Z,67.97
2022-12-26T00:50:43.731Z,77.00
2022-12-26T00:53:47.888Z,74.53
2022-12-26T00:56:50.708Z,81.00
2022-12-26T00:59:53.443Z,72.90
2022-12-26T01:02:56.411Z,79.00
2022-12-26T01:06:03.036Z,85.85
2022-12-26T01:09:05.826Z,81.30
2022-12-26T01:12:08.583Z,75.00
2022-12-26T01:15:11.465Z,77.53
2022-12-26T01:18:14.174Z,75.82
2022-12-26T01:21:17.016Z,72.35
2022-12-26T01:24:19.732Z,73.55
2022-12-26T01:27:23.797Z,64.72
2022-12-26T01:30:26.676Z,80.67
2022-12-26T01:33:30.235Z,66.70
2022-12-26T01:36:32.967Z,65.35
2022-12-26T01:39:35.705Z,69.45
2022-12-26T01:42:40.328Z,66.57
2022-12-26T01:45:50.651Z,76.30
2022-12-26T01:48:56.348Z,80.43
2022-12-26T01:52:03.609Z,78.50
2022-12-26T01:55:10.725Z,81.65
2022-12-26T01:58:28.569Z,91.03
2022-12-26T02:01:33.733Z,78.90
2022-12-26T02:05:02.471Z,78.88
2022-12-26T02:08:24.982Z,77.55
2022-12-26T02:11:41.381Z,90.72
2022-12-26T02:14:44.287Z,97.33
2022-12-26T02:17:47.153Z,93.20
2022-12-26T02:21:07.980Z,98.40
2022-12-26T02:24:46.222Z,99.43
2022-12-26T02:27:49.019Z,85.18
2022-12-26T02:31:04.142Z,94.10
2022-12-26T02:34:19.907Z,92.67
2022-12-26T02:37:44.532Z,98.20
2022-12-26T02:41:13.369Z,99.45
2022-12-26T02:45:00.694Z,95.47
2022-12-26T02:48:15.588Z,92.80
2022-12-26T02:52:09.101Z,95.13
2022-12-26T02:55:36.931Z,99.78
2022-12-26T02:59:53.989Z,87.47
2022-12-26T03:03:33.497Z,100.93
2022-12-26T03:06:57.830Z,82.50
2022-12-26T03:10:24.878Z,87.00
2022-12-26T03:13:33.476Z,86.75
2022-12-26T03:16:54.706Z,85.28
2022-12-26T03:20:03.836Z,86.20
2022-12-26T03:23:10.457Z,86.23
2022-12-26T03:26:39.906Z,84.33
2022-12-26T03:30:14.739Z,85.88
2022-12-26T03:33:40.783Z,83.50
2022-12-26T03:37:15.856Z,68.97
2022-12-26T03:40:55.637Z,60.90
2022-12-26T03:44:53.770Z,61.53
2022-12-26T03:48:55.580Z,56.92
2022-12-26T03:52:38.894Z,60.42
2022-12-26T03:56:20.300Z,51.33
2022-12-26T03:59:48.368Z,47.37
2022-12-26T04:03:13.766Z,41.47
2022-12-26T04:06:42.108Z,41.30
2022-12-26T04:10:23.837Z,47.10
2022-12-26T04:13:51.330Z,50.28
2022-12-26T04:17:28.237Z,50.63
2022-12-26T04:20:47.960Z,44.43
2022-12-26T04:24:17.988Z,46.08
2022-12-26T04:27:42.663Z,44.20
2022-12-26T04:31:12.215Z,48.85
2022-12-26T04:34:51.985Z,50.93
2022-12-26T04:38:15.266Z,53.27
2022-12-26T04:41:39.184Z,49.95
2022-12-26T04:44:42.933Z,51.05
2022-12-26T04:48:05.768Z,54.20
2022-12-26T04:51:08.653Z,48.67
2022-12-26T04:54:11.388Z,52.13
2022-12-26T04:57:14.116Z,57.97
2022-12-26T05:00:17.946Z,51.80
2022-12-26T05:03:39.099Z,48.28
2022-12-26T05:07:00.242Z,45.33
2022-12-26T05:10:05.023Z,51.83
2022-12-26T05:13:07.850Z,54.22
2022-12-26T05:16:29.716Z,58.85
2022-12-26T05:19:51.307Z,57.13
2022-12-26T05:23:13.086Z,58.90
2022-12-26T05:26:37.871Z,59.17
2022-12-26T05:29:40.989Z,64.45
2022-12-26T05:33:02.338Z,73.55
2022-12-26T05:36:05.411Z,82.47
2022-12-26T05:39:09.742Z,93.83
2022-12-26T05:42:12.537Z,88.70
2022-12-26T05:45:15.407Z,96.75
2022-12-26T05:48:18.207Z,98.82
2022-12-26T05:51:21.216Z,98.97
2022-12-26T05:54:23.967Z,99.53
2022-12-26T05:57:26.757Z,91.30
2022-12-26T06:00:30.651Z,91.60
2022-12-26T06:03:34.153Z,99.80
2022-12-26T06:06:37.124Z,94.07
2022-12-26T06:09:39.885Z,90.97
2022-12-26T06:12:42.582Z,82.50
2022-12-26T06:15:45.401Z,80.57
2022-12-26T06:18:49.958Z,83.30
2022-12-26T06:21:52.738Z,73.55
2022-12-26T06:24:55.697Z,75.10
2022-12-26T06:27:58.670Z,76.37
2022-12-26T06:31:06.674Z,74.38
2022-12-26T06:34:12.560Z,70.68
2022-12-26T06:37:15.356Z,79.38
2022-12-26T06:40:18.089Z,101.10
2022-12-26T06:43:20.819Z,78.47
2022-12-26T06:46:25.343Z,80.03
2022-12-26T06:49:32.727Z,97.15
2022-12-26T06:52:36.094Z,109.68
2022-12-26T06:55:38.952Z,135.87
2022-12-26T06:58:42.065Z,144.33
2022-12-26T07:01:45.029Z,135.68
2022-12-26T07:04:48.108Z,134.07
2022-12-26T07:07:54.299Z,130.55
2022-12-26T07:10:58.333Z,109.77
2022-12-26T07:14:01.859Z,118.93
2022-12-26T07:17:04.659Z,130.75
2022-12-26T07:20:08.801Z,122.57
2022-12-26T07:23:11.539Z,131.05
2022-12-26T07:26:15.117Z,115.97
2022-12-26T07:29:18.029Z,114.67
2022-12-26T07:32:20.836Z,118.60
2022-12-26T07:35:23.723Z,123.60
2022-12-26T07:38:26.622Z,115.30
2022-12-26T07:41:48.957Z,100.00
2022-12-26T07:44:51.717Z,111.40
2022-12-26T07:47:56.287Z,128.57
2022-12-26T07:51:02.717Z,131.88
2022-12-26T07:54:11.080Z,141.98
2022-12-26T08:00:37.233Z,130.07
2022-12-26T08:03:40.111Z,124.30
2022-12-26T08:06:46.706Z,101.70
2022-12-26T08:09:49.667Z,96.90
2022-12-26T08:12:52.417Z,75.70
2022-12-26T08:15:55.755Z,68.30
2022-12-26T08:18:58.690Z,67.38
2022-12-26T08:22:01.562Z,64.07
2022-12-26T08:25:04.728Z,69.22
2022-12-26T08:28:07.571Z,63.63
2022-12-26T08:31:12.685Z,64.47
2022-12-26T08:34:15.905Z,62.03
2022-12-26T08:37:18.813Z,64.80
2022-12-26T08:40:39.820Z,63.67
2022-12-26T08:47:10.445Z,59.40
2022-12-26T08:50:13.460Z,62.65
2022-12-26T08:53:16.224Z,68.32
2022-12-26T08:56:22.095Z,64.93
2022-12-26T08:59:24.896Z,52.85
2022-12-26T09:02:27.997Z,42.07
2022-12-26T09:05:32.502Z,47.08
2022-12-26T09:08:36.762Z,37.97
2022-12-26T09:11:40.620Z,34.80
2022-12-26T09:14:44.289Z,37.78
2022-12-26T09:17:47.472Z,33.63
2022-12-26T09:20:50.355Z,37.22
2022-12-26T09:23:58.963Z,30.17
2022-12-26T09:27:01.823Z,37.20
2022-12-26T09:30:05.177Z,32.55
2022-12-26T09:33:08.394Z,26.63
2022-12-26T09:36:15.329Z,22.33
2022-12-26T09:39:18.220Z,24.00
2022-12-26T09:42:50.526Z,21.08
2022-12-26T09:46:11.384Z,23.63
2022-12-26T09:49:19.579Z,22.50
2022-12-26T09:52:38.780Z,21.73
2022-12-26T09:55:54.622Z,24.75
2022-12-26T09:59:02.746Z,21.83
2022-12-26T10:02:18.137Z,20.90
2022-12-26T10:05:26.315Z,24.63
2022-12-26T10:08:54.803Z,23.98
2022-12-26T10:12:21.764Z,22.35
2022-12-26T10:15:45.655Z,21.95
2022-12-26T10:19:03.476Z,20.83
2022-12-26T10:22:15.918Z,21.07
2022-12-26T10:25:25.426Z,19.83
2022-12-26T10:28:47.372Z,23.25
2022-12-26T10:31:52.965Z,21.05
2022-12-26T10:34:56.123Z,17.13
2022-12-26T10:38:15.981Z,18.60
2022-12-26T10:41:32.844Z,16.98
2022-12-26T10:44:35.755Z,20.15
2022-12-26T10:47:42.177Z,18.60
2022-12-26T10:50:48.885Z,15.52
2022-12-26T10:53:54.082Z,12.70
2022-12-26T10:56:59.450Z,14.30
2022-12-26T11:00:14.521Z,13.50
2022-12-26T11:03:20.070Z,12.18
2022-12-26T11:06:27.808Z,12.68
2022-12-26T11:09:41.436Z,12.40
2022-12-26T11:12:51.533Z,11.48
2022-12-26T11:15:55.087Z,13.73
2022-12-26T11:18:58.877Z,11.02
2022-12-26T11:22:23.292Z,12.50
2022-12-26T11:25:30.672Z,10.53
2022-12-26T11:28:37.952Z,12.82
2022-12-26T11:31:43.175Z,11.95
2022-12-26T11:34:49.440Z,16.08
2022-12-26T11:37:56.617Z,17.15
2022-12-26T11:41:18.437Z,13.30
2022-12-26T11:44:26.685Z,15.65
2022-12-26T11:47:30.056Z,13.80
2022-12-26T11:50:35.594Z,14.80
2022-12-26T11:53:38.428Z,16.83
2022-12-26T11:56:41.283Z,18.00
2022-12-26T11:59:44.876Z,16.23
2022-12-26T12:02:48.589Z,21.15
2022-12-26T12:05:58.921Z,20.02
2022-12-26T12:09:32.165Z,15.88
2022-12-26T12:13:07.605Z,12.13
2022-12-26T12:16:35.335Z,18.08
2022-12-26T12:19:55.668Z,16.45
2022-12-26T12:23:26.491Z,17.95
2022-12-26T12:26:57.547Z,25.58
2022-12-26T12:30:21.136Z,26.70
2022-12-26T12:33:47.455Z,22.10
2022-12-26T12:37:20.107Z,20.67
2022-12-26T12:40:52.384Z,21.98
2022-12-26T12:44:34.743Z,21.73
2022-12-26T12:47:40.344Z,15.40
2022-12-26T12:50:56.754Z,17.58
2022-12-26T12:54:33.625Z,19.55
2022-12-26T12:57:55.182Z,17.98
2022-12-26T13:01:08.442Z,18.60
2022-12-26T13:04:33.392Z,14.93
2022-12-26T13:07:46.909Z,15.48
2022-12-26T13:11:00.160Z,20.35
2022-12-26T13:14:12.053Z,14.82
2022-12-26T13:17:20.746Z,14.32
2022-12-26T13:20:49.913Z,11.00
2022-12-26T13:24:34.650Z,9.95
2022-12-26T13:27:39.145Z,13.43
2022-12-26T13:30:42.651Z,15.63
2022-12-26T13:33:45.539Z,23.20
2022-12-26T13:36:51.043Z,29.50
2022-12-26T13:39:54.113Z,27.33
2022-12-26T13:43:24.664Z,14.25
2022-12-26T13:46:44.742Z,16.08
2022-12-26T13:49:47.614Z,36.58
2022-12-26T13:52:50.637Z,27.53
2022-12-26T13:56:10.856Z,22.58
2022-12-26T13:59:25.426Z,12.70
2022-12-26T14:02:43.029Z,19.30
2022-12-26T14:06:07.075Z,16.48
2022-12-26T14:09:36.286Z,17.07
2022-12-26T14:12:55.994Z,43.78
2022-12-26T14:16:09.244Z,41.10
2022-12-26T14:19:33.278Z,44.17
2022-12-26T14:22:51.475Z,35.60
2022-12-26T14:26:07.093Z,31.23
2022-12-26T14:29:32.779Z,31.08
2022-12-26T14:32:58.233Z,24.95
2022-12-26T14:36:28.334Z,17.38
2022-12-26T14:40:00.060Z,22.00
2022-12-26T14:43:12.954Z,26.90
2022-12-26T14:46:30.743Z,25.55
2022-12-26T14:49:35.704Z,35.30
2022-12-26T14:52:40.977Z,22.75
2022-12-26T14:55:59.036Z,22.10
2022-12-26T14:59:34.865Z,28.57
2022-12-26T15:02:42.834Z,30.10
2022-12-26T15:05:48.497Z,29.80
2022-12-26T15:08:54.234Z,25.40
2022-12-26T15:12:34.159Z,26.67
2022-12-26T15:15:58.261Z,32.00
2022-12-26T15:19:19.488Z,34.60
2022-12-26T15:22:25.080Z,27.23
2022-12-26T15:25:52.127Z,29.42
2022-12-26T15:29:06.672Z,28.33
2022-12-26T15:32:33.841Z,43.10
2022-12-26T15:36:06.585Z,45.78
2022-12-26T15:39:21.802Z,50.70
2022-12-26T15:42:39.270Z,54.05
2022-12-26T15:45:50.863Z,64.55
2022-12-26T15:49:19.418Z,74.13
2022-12-26T15:52:34.655Z,51.45
2022-12-26T15:55:49.589Z,35.97
2022-12-26T15:59:19.863Z,41.58
2022-12-26T16:02:25.641Z,31.70
2022-12-26T16:05:31.435Z,35.60
2022-12-26T16:09:00.454Z,31.80
2022-12-26T16:12:28.151Z,19.88
2022-12-26T16:15:32.885Z,19.45
2022-12-26T16:18:36.137Z,22.83
2022-12-26T16:21:57.490Z,23.10
2022-12-26T16:25:01.482Z,21.67
2022-12-26T16:28:05.416Z,23.50
2022-12-26T16:31:10.120Z,20.05
2022-12-26T16:34:35.005Z,21.70
2022-12-26T16:37:38.239Z,21.83
2022-12-26T16:40:51.381Z,20.50
2022-12-26T16:43:56.263Z,20.85
2022-12-26T16:47:06.120Z,23.30
2022-12-26T16:50:17.073Z,25.88
2022-12-26T16:53:23.909Z,28.03
2022-12-26T16:56:33.904Z,23.42
2022-12-26T16:59:51.331Z,19.70
2022-12-26T17:02:57.630Z,19.75
2022-12-26T17:06:00.633Z,23.98
2022-12-26T17:09:16.888Z,26.47
2022-12-26T17:12:23.028Z,31.67
2022-12-26T17:15:31.254Z,31.27
2022-12-26T17:18:49.984Z,33.75
2022-12-26T17:22:14.830Z,30.20
2022-12-26T17:25:17.560Z,32.97
2022-12-26T17:28:20.286Z,30.92
2022-12-26T17:31:39.072Z,22.65
2022-12-26T17:34:42.610Z,24.50
2022-12-26T17:37:47.474Z,24.25
2022-12-26T17:40:54.696Z,21.73
2022-12-26T17:43:57.985Z,22.00
2022-12-26T17:47:12.531Z,22.17
2022-12-26T17:50:15.768Z,19.50
2022-12-26T17:53:28.099Z,21.73
2022-12-26T17:56:31.185Z,19.60
2022-12-26T17:59:35.601Z,18.45
2022-12-26T18:02:38.462Z,17.48
2022-12-26T18:05:41.511Z,21.60
2022-12-26T18:08:44.874Z,16.90
2022-12-26T18:11:48.082Z,18.30
2022-12-26T18:14:53.537Z,22.27
2022-12-26T18:18:00.477Z,23.38
2022-12-26T18:21:05.706Z,21.95
2022-12-26T18:24:08.724Z,26.40
2022-12-26T18:27:22.964Z,27.27
2022-12-26T18:30:26.112Z,29.90
2022-12-26T18:33:28.933Z,25.70
2022-12-26T18:36:37.216Z,29.13
2022-12-26T18:39:39.928Z,27.52
2022-12-26T18:42:42.873Z,26.67
2022-12-26T18:45:45.777Z,22.70
2022-12-26T18:48:54.058Z,21.77
2022-12-26T18:51:57.080Z,29.60
2022-12-26T18:54:59.901Z,29.95
2022-12-26T18:58:02.927Z,35.33
2022-12-26T19:01:06.378Z,36.00
2022-12-26T19:04:15.447Z,30.20
2022-12-26T19:07:20.556Z,36.15
2022-12-26T19:10:27.969Z,27.52
2022-12-26T19:13:31.481Z,23.30
2022-12-26T19:16:37.514Z,26.73
2022-12-26T19:19:40.769Z,32.65
2022-12-26T19:22:43.990Z,44.75
2022-12-26T19:25:47.380Z,65.97
2022-12-26T19:28:55.597Z,85.97
2022-12-26T19:31:58.725Z,53.45
2022-12-26T19:35:01.598Z,48.95
2022-12-26T19:38:04.804Z,43.25
2022-12-26T19:41:11.624Z,40.83
2022-12-26T19:44:15.129Z,46.57
2022-12-26T19:47:18.698Z,47.38
2022-12-26T19:50:21.517Z,53.05
2022-12-26T19:53:25.496Z,55.45
2022-12-26T19:56:28.988Z,68.83
2022-12-26T19:59:32.390Z,46.23
2022-12-26T20:02:35.787Z,49.92
2022-12-26T20:05:40.430Z,39.83
2022-12-26T20:08:44.892Z,35.35
2022-12-26T20:11:54.175Z,31.08
2022-12-26T20:14:56.985Z,30.20
2022-12-26T20:18:00.173Z,27.88
2022-12-26T20:21:04.029Z,25.13
2022-12-26T20:24:07.715Z,32.92
2022-12-26T20:27:10.540Z,30.98
2022-12-26T20:30:13.775Z,49.80
2022-12-26T20:33:16.542Z,41.90
2022-12-26T20:36:23.760Z,36.78
2022-12-26T20:39:27.396Z,27.15
2022-12-26T20:42:30.353Z,26.17
2022-12-26T20:45:33.437Z,19.20
2022-12-26T20:48:36.824Z,19.15
2022-12-26T20:51:42.309Z,15.90
2022-12-26T20:54:45.184Z,15.52
2022-12-26T20:57:48.021Z,14.02
2022-12-26T21:00:59.362Z,17.03
2022-12-26T21:04:02.261Z,15.80
2022-12-26T21:07:05.272Z,14.68
2022-12-26T21:10:09.124Z,17.52
2022-12-26T21:13:12.681Z,22.00
2022-12-26T21:16:25.367Z,30.47
2022-12-26T21:19:29.789Z,20.73
2022-12-26T21:22:32.731Z,23.38
2022-12-26T21:25:36.731Z,20.38
2022-12-26T21:28:39.913Z,18.60
2022-12-26T21:31:43.081Z,17.37
2022-12-26T21:34:46.053Z,18.95
2022-12-26T21:37:48.896Z,19.88
2022-12-26T21:40:51.887Z,16.25
2022-12-26T21:43:55.842Z,16.95
2022-12-26T21:46:59.027Z,13.30
2022-12-26T21:50:01.920Z,11.43
2022-12-26T21:53:04.760Z,13.10
2022-12-26T21:56:09.192Z,13.05
2022-12-26T21:59:30.732Z,11.30
2022-12-26T22:02:55.099Z,14.33
2022-12-26T22:05:58.236Z,14.52
2022-12-26T22:09:01.870Z,14.55
2022-12-26T22:12:23.185Z,14.70
2022-12-26T22:15:44.995Z,16.83
2022-12-26T22:18:47.853Z,16.13
2022-12-26T22:21:54.671Z,21.42
2022-12-26T22:24:57.669Z,25.70
2022-12-26T22:28:00.477Z,24.45
2022-12-26T22:31:03.390Z,22.67
2022-12-26T22:34:12.479Z,15.23
2022-12-26T22:37:15.308Z,11.23
2022-12-26T22:40:18.212Z,14.27
2022-12-26T22:43:21.360Z,12.32
2022-12-26T22:46:24.534Z,10.05
2022-12-26T22:49:27.646Z,9.90
2022-12-26T22:52:31.079Z,9.45
2022-12-26T22:55:33.797Z,8.63
2022-12-26T22:58:36.581Z,8.70
2022-12-26T23:01:39.515Z,9.43
2022-12-26T23:04:42.765Z,8.90
2022-12-26T23:07:45.967Z,8.20
2022-12-26T23:10:49.218Z,7.85
2022-12-26T23:13:52.361Z,9.00
2022-12-26T23:16:58.732Z,9.20
2022-12-26T23:20:20.645Z,9.17
2022-12-26T23:23:24.491Z,6.80
2022-12-26T23:26:27.277Z,7.55
2022-12-26T23:29:48.663Z,9.57
2022-12-26T23:32:53.009Z,8.25
2022-12-26T23:35:55.782Z,8.97
2022-12-26T23:38:58.904Z,7.57
2022-12-26T23:42:02.130Z,9.05
2022-12-26T23:45:06.344Z,6.13
2022-12-26T23:48:09.307Z,6.57
2022-12-26T23:51:12.287Z,6.70
2022-12-26T23:54:15.090Z,7.45
2022-12-26T23:57:17.949Z,6.55
